sensor_id;sensor_type;location;lat;lon;timestamp;temperature;humidity
69776;DHT22;57049;51.450;-2.516;2023-02-10T00:01:12;0.54;97.94
69776;DHT22;57049;51.450;-2.516;2023-02-10T00:03:39;0.51;97.95
69776;DHT22;57049;51.450;-2.516;2023-02-10T00:06:06;0.48;98.20
69776;DHT22;57049;51.450;-2.516;2023-02-10T00:08:32;0.46;98.13
69776;DHT22;57049;51.450;-2.516;2023-02-10T00:11:09;0.46;98.14
69776;DHT22;57049;51.450;-2.516;2023-02-10T00:13:37;0.41;98.32
69776;DHT22;57049;51.450;-2.516;2023-02-10T00:16:04;0.40;98.28
69776;DHT22;57049;51.450;-2.516;2023-02-10T00:18:31;0.37;98.28
69776;DHT22;57049;51.450;-2.516;2023-02-10T00:21:04;0.33;98.14
69776;DHT22;57049;51.450;-2.516;2023-02-10T00:23:29;0.31;98.20
69776;DHT22;57049;51.450;-2.516;2023-02-10T00:25:55;0.30;98.11
69776;DHT22;57049;51.450;-2.516;2023-02-10T00:28:20;0.30;98.30
69776;DHT22;57049;51.450;-2.516;2023-02-10T00:30:46;0.27;98.36
69776;DHT22;57049;51.450;-2.516;2023-02-10T00:33:11;0.21;98.40
69776;DHT22;57049;51.450;-2.516;2023-02-10T00:35:37;0.20;98.20
69776;DHT22;57049;51.450;-2.516;2023-02-10T00:38:02;0.19;98.33
69776;DHT22;57049;51.450;-2.516;2023-02-10T00:40:28;0.17;98.53
69776;DHT22;57049;51.450;-2.516;2023-02-10T00:42:53;0.16;98.53
69776;DHT22;57049;51.450;-2.516;2023-02-10T00:45:19;0.11;98.34
69776;DHT22;57049;51.450;-2.516;2023-02-10T00:47:44;0.11;98.59
69776;DHT22;57049;51.450;-2.516;2023-02-10T00:50:11;0.11;98.60
69776;DHT22;57049;51.450;-2.516;2023-02-10T00:52:37;0.10;98.59
69776;DHT22;57049;51.450;-2.516;2023-02-10T00:55:03;0.07;98.48
69776;DHT22;57049;51.450;-2.516;2023-02-10T00:57:29;0.06;98.54
69776;DHT22;57049;51.450;-2.516;2023-02-10T00:59:55;0.07;98.77
69776;DHT22;57049;51.450;-2.516;2023-02-10T01:02:20;0.05;98.86
69776;DHT22;57049;51.450;-2.516;2023-02-10T01:04:45;0.05;98.78
69776;DHT22;57049;51.450;-2.516;2023-02-10T01:07:11;0.03;98.65
69776;DHT22;57049;51.450;-2.516;2023-02-10T01:09:36;-0.01;98.71
69776;DHT22;57049;51.450;-2.516;2023-02-10T01:12:02;-0.04;98.60
69776;DHT22;57049;51.450;-2.516;2023-02-10T01:14:28;-0.07;98.76
69776;DHT22;57049;51.450;-2.516;2023-02-10T01:16:53;-0.08;98.90
69776;DHT22;57049;51.450;-2.516;2023-02-10T01:19:19;-0.07;98.93
69776;DHT22;57049;51.450;-2.516;2023-02-10T01:21:44;-0.07;98.81
69776;DHT22;57049;51.450;-2.516;2023-02-10T01:24:10;-0.08;98.85
69776;DHT22;57049;51.450;-2.516;2023-02-10T01:26:35;-0.07;98.77
69776;DHT22;57049;51.450;-2.516;2023-02-10T01:29:01;-0.04;98.82
69776;DHT22;57049;51.450;-2.516;2023-02-10T01:31:27;-0.07;98.92
69776;DHT22;57049;51.450;-2.516;2023-02-10T01:33:54;-0.08;98.89
69776;DHT22;57049;51.450;-2.516;2023-02-10T01:36:22;-0.11;98.99
69776;DHT22;57049;51.450;-2.516;2023-02-10T01:38:48;-0.12;98.98
69776;DHT22;57049;51.450;-2.516;2023-02-10T01:41:16;-0.18;98.83
69776;DHT22;57049;51.450;-2.516;2023-02-10T01:44:06;-0.21;98.99
69776;DHT22;57049;51.450;-2.516;2023-02-10T01:46:33;-0.24;99.04
69776;DHT22;57049;51.450;-2.516;2023-02-10T01:49:05;-0.25;98.98
69776;DHT22;57049;51.450;-2.516;2023-02-10T01:51:51;-0.26;98.96
69776;DHT22;57049;51.450;-2.516;2023-02-10T01:54:21;-0.29;99.18
69776;DHT22;57049;51.450;-2.516;2023-02-10T01:56:48;-0.29;99.15
69776;DHT22;57049;51.450;-2.516;2023-02-10T01:59:14;-0.26;99.37
69776;DHT22;57049;51.450;-2.516;2023-02-10T02:01:40;-0.31;99.24
69776;DHT22;57049;51.450;-2.516;2023-02-10T02:04:06;-0.29;99.37
69776;DHT22;57049;51.450;-2.516;2023-02-10T02:06:33;-0.34;99.20
69776;DHT22;57049;51.450;-2.516;2023-02-10T02:08:58;-0.38;99.15
69776;DHT22;57049;51.450;-2.516;2023-02-10T02:11:38;-0.36;99.34
69776;DHT22;57049;51.450;-2.516;2023-02-10T02:14:29;-0.36;99.16
69776;DHT22;57049;51.450;-2.516;2023-02-10T02:17:03;-0.35;99.16
69776;DHT22;57049;51.450;-2.516;2023-02-10T02:23:13;-0.32;99.34
69776;DHT22;57049;51.450;-2.516;2023-02-10T02:26:04;-0.34;99.48
69776;DHT22;57049;51.450;-2.516;2023-02-10T02:36:45;-0.48;99.46
69776;DHT22;57049;51.450;-2.516;2023-02-10T02:39:14;-0.51;99.37
69776;DHT22;57049;51.450;-2.516;2023-02-10T02:41:39;-0.55;99.39
69776;DHT22;57049;51.450;-2.516;2023-02-10T02:44:06;-0.56;99.55
69776;DHT22;57049;51.450;-2.516;2023-02-10T02:46:54;-0.55;99.60
69776;DHT22;57049;51.450;-2.516;2023-02-10T02:49:29;-0.59;99.53
69776;DHT22;57049;51.450;-2.516;2023-02-10T02:52:04;-0.62;99.52
69776;DHT22;57049;51.450;-2.516;2023-02-10T02:57:11;-0.64;99.69
69776;DHT22;57049;51.450;-2.516;2023-02-10T02:59:49;-0.62;99.71
69776;DHT22;57049;51.450;-2.516;2023-02-10T03:02:17;-0.64;99.55
69776;DHT22;57049;51.450;-2.516;2023-02-10T03:04:45;-0.62;99.54
69776;DHT22;57049;51.450;-2.516;2023-02-10T03:07:10;-0.69;99.49
69776;DHT22;57049;51.450;-2.516;2023-02-10T03:09:36;-0.72;99.68
69776;DHT22;57049;51.450;-2.516;2023-02-10T03:12:02;-0.76;99.51
69776;DHT22;57049;51.450;-2.516;2023-02-10T03:14:28;-0.72;99.74
69776;DHT22;57049;51.450;-2.516;2023-02-10T03:16:53;-0.76;99.80
69776;DHT22;57049;51.450;-2.516;2023-02-10T03:19:19;-0.75;99.70
69776;DHT22;57049;51.450;-2.516;2023-02-10T03:21:44;-0.79;99.70
69776;DHT22;57049;51.450;-2.516;2023-02-10T03:24:10;-0.80;99.66
69776;DHT22;57049;51.450;-2.516;2023-02-10T03:26:36;-0.82;99.69
69776;DHT22;57049;51.450;-2.516;2023-02-10T03:29:03;-0.82;99.84
69776;DHT22;57049;51.450;-2.516;2023-02-10T03:31:29;-0.77;99.92
69776;DHT22;57049;51.450;-2.516;2023-02-10T03:33:54;-0.79;99.90
69776;DHT22;57049;51.450;-2.516;2023-02-10T03:36:20;-0.80;99.98
69776;DHT22;57049;51.450;-2.516;2023-02-10T03:38:45;-0.77;99.69
69776;DHT22;57049;51.450;-2.516;2023-02-10T03:41:11;-0.83;99.72
69776;DHT22;57049;51.450;-2.516;2023-02-10T03:43:38;-0.87;99.73
69776;DHT22;57049;51.450;-2.516;2023-02-10T03:46:04;-0.92;99.75
69776;DHT22;57049;51.450;-2.516;2023-02-10T03:48:30;-0.93;99.80
69776;DHT22;57049;51.450;-2.516;2023-02-10T03:51:01;-0.96;99.92
69776;DHT22;57049;51.450;-2.516;2023-02-10T03:53:27;-0.95;99.87
69776;DHT22;57049;51.450;-2.516;2023-02-10T03:55:53;-0.90;99.80
69776;DHT22;57049;51.450;-2.516;2023-02-10T03:58:18;-0.97;99.72
69776;DHT22;57049;51.450;-2.516;2023-02-10T04:00:44;-0.97;99.74
69776;DHT22;57049;51.450;-2.516;2023-02-10T04:03:09;-1.00;99.92
69776;DHT22;57049;51.450;-2.516;2023-02-10T04:05:35;-1.01;99.81
69776;DHT22;57049;51.450;-2.516;2023-02-10T04:08:00;-1.04;99.85
69776;DHT22;57049;51.450;-2.516;2023-02-10T04:10:26;-1.04;99.93
69776;DHT22;57049;51.450;-2.516;2023-02-10T04:12:52;-1.04;99.85
69776;DHT22;57049;51.450;-2.516;2023-02-10T04:15:18;-1.10;99.76
69776;DHT22;57049;51.450;-2.516;2023-02-10T04:17:43;-1.13;99.90
69776;DHT22;57049;51.450;-2.516;2023-02-10T04:20:09;-1.13;99.75
69776;DHT22;57049;51.450;-2.516;2023-02-10T04:22:35;-1.20;99.77
69776;DHT22;57049;51.450;-2.516;2023-02-10T04:25:00;-1.17;99.76
69776;DHT22;57049;51.450;-2.516;2023-02-10T04:27:26;-1.21;99.74
69776;DHT22;57049;51.450;-2.516;2023-02-10T04:29:51;-1.24;99.75
69776;DHT22;57049;51.450;-2.516;2023-02-10T04:32:17;-1.23;99.83
69776;DHT22;57049;51.450;-2.516;2023-02-10T04:34:42;-1.26;99.76
69776;DHT22;57049;51.450;-2.516;2023-02-10T04:37:08;-1.26;99.79
69776;DHT22;57049;51.450;-2.516;2023-02-10T04:39:33;-1.23;99.87
69776;DHT22;57049;51.450;-2.516;2023-02-10T04:41:59;-1.24;99.79
69776;DHT22;57049;51.450;-2.516;2023-02-10T04:44:25;-1.23;99.88
69776;DHT22;57049;51.450;-2.516;2023-02-10T04:46:50;-1.18;99.77
69776;DHT22;57049;51.450;-2.516;2023-02-10T04:49:16;-1.21;99.76
69776;DHT22;57049;51.450;-2.516;2023-02-10T04:51:42;-1.21;99.85
69776;DHT22;57049;51.450;-2.516;2023-02-10T04:54:07;-1.24;99.81
69776;DHT22;57049;51.450;-2.516;2023-02-10T04:56:36;-1.30;99.74
69776;DHT22;57049;51.450;-2.516;2023-02-10T04:59:02;-1.36;99.76
69776;DHT22;57049;51.450;-2.516;2023-02-10T05:01:27;-1.36;99.74
69776;DHT22;57049;51.450;-2.516;2023-02-10T05:03:53;-1.36;99.76
69776;DHT22;57049;51.450;-2.516;2023-02-10T05:06:18;-1.40;99.85
69776;DHT22;57049;51.450;-2.516;2023-02-10T05:08:44;-1.33;99.85
69776;DHT22;57049;51.450;-2.516;2023-02-10T05:11:11;-1.30;99.99
69776;DHT22;57049;51.450;-2.516;2023-02-10T05:13:37;-1.10;99.80
69776;DHT22;57049;51.450;-2.516;2023-02-10T05:16:03;-1.10;99.65
69776;DHT22;57049;51.450;-2.516;2023-02-10T05:18:33;-1.04;99.42
69776;DHT22;57049;51.450;-2.516;2023-02-10T05:20:59;-1.11;99.45
69776;DHT22;57049;51.450;-2.516;2023-02-10T05:23:25;-1.13;99.59
69776;DHT22;57049;51.450;-2.516;2023-02-10T05:25:51;-1.17;99.49
69776;DHT22;57049;51.450;-2.516;2023-02-10T05:28:16;-1.24;99.50
69776;DHT22;57049;51.450;-2.516;2023-02-10T05:30:42;-1.31;99.55
69776;DHT22;57049;51.450;-2.516;2023-02-10T05:33:07;-1.34;99.63
69776;DHT22;57049;51.450;-2.516;2023-02-10T05:35:33;-1.40;99.81
69776;DHT22;57049;51.450;-2.516;2023-02-10T05:37:58;-1.37;99.88
69776;DHT22;57049;51.450;-2.516;2023-02-10T05:40:27;-1.41;99.78
69776;DHT22;57049;51.450;-2.516;2023-02-10T05:42:53;-1.40;99.90
69776;DHT22;57049;51.450;-2.516;2023-02-10T05:45:18;-1.40;99.80
69776;DHT22;57049;51.450;-2.516;2023-02-10T05:47:44;-1.34;99.93
69776;DHT22;57049;51.450;-2.516;2023-02-10T05:50:09;-1.36;99.92
69776;DHT22;57049;51.450;-2.516;2023-02-10T05:52:35;-1.23;99.95
69776;DHT22;57049;51.450;-2.516;2023-02-10T05:55:00;-1.20;99.99
69776;DHT22;57049;51.450;-2.516;2023-02-10T05:57:26;-1.17;99.90
69776;DHT22;57049;51.450;-2.516;2023-02-10T05:59:51;-1.11;99.93
69776;DHT22;57049;51.450;-2.516;2023-02-10T06:02:17;-1.14;99.83
69776;DHT22;57049;51.450;-2.516;2023-02-10T06:04:42;-1.18;99.82
69776;DHT22;57049;51.450;-2.516;2023-02-10T06:07:08;-1.21;99.76
69776;DHT22;57049;51.450;-2.516;2023-02-10T06:09:34;-1.26;99.71
69776;DHT22;57049;51.450;-2.516;2023-02-10T06:11:59;-1.31;99.58
69776;DHT22;57049;51.450;-2.516;2023-02-10T06:14:25;-1.33;99.73
69776;DHT22;57049;51.450;-2.516;2023-02-10T06:16:51;-1.38;99.76
69776;DHT22;57049;51.450;-2.516;2023-02-10T06:19:16;-1.47;99.72
69776;DHT22;57049;51.450;-2.516;2023-02-10T06:21:42;-1.50;99.76
69776;DHT22;57049;51.450;-2.516;2023-02-10T06:24:07;-1.40;99.90
69776;DHT22;57049;51.450;-2.516;2023-02-10T06:26:34;-1.33;99.65
69776;DHT22;57049;51.450;-2.516;2023-02-10T06:29:00;-1.34;99.69
69776;DHT22;57049;51.450;-2.516;2023-02-10T06:31:25;-1.36;99.77
69776;DHT22;57049;51.450;-2.516;2023-02-10T06:33:51;-1.41;99.66
69776;DHT22;57049;51.450;-2.516;2023-02-10T06:36:16;-1.41;99.80
69776;DHT22;57049;51.450;-2.516;2023-02-10T06:38:42;-1.46;99.77
69776;DHT22;57049;51.450;-2.516;2023-02-10T06:41:07;-1.50;99.90
69776;DHT22;57049;51.450;-2.516;2023-02-10T06:43:33;-1.50;99.89
69776;DHT22;57049;51.450;-2.516;2023-02-10T06:45:59;-1.51;99.86
69776;DHT22;57049;51.450;-2.516;2023-02-10T06:48:25;-1.50;99.96
69776;DHT22;57049;51.450;-2.516;2023-02-10T06:50:51;-1.50;99.97
69776;DHT22;57049;51.450;-2.516;2023-02-10T06:53:18;-1.50;99.98
69776;DHT22;57049;51.450;-2.516;2023-02-10T06:55:43;-1.47;99.99
69776;DHT22;57049;51.450;-2.516;2023-02-10T06:58:09;-1.47;99.99
69776;DHT22;57049;51.450;-2.516;2023-02-10T07:00:35;-1.44;99.99
69776;DHT22;57049;51.450;-2.516;2023-02-10T07:03:00;-1.44;99.99
69776;DHT22;57049;51.450;-2.516;2023-02-10T07:05:26;-1.43;99.99
69776;DHT22;57049;51.450;-2.516;2023-02-10T07:07:52;-1.43;99.99
69776;DHT22;57049;51.450;-2.516;2023-02-10T07:10:19;-1.46;99.99
69776;DHT22;57049;51.450;-2.516;2023-02-10T07:12:45;-1.41;99.89
69776;DHT22;57049;51.450;-2.516;2023-02-10T07:15:13;-1.37;99.74
69776;DHT22;57049;51.450;-2.516;2023-02-10T07:17:39;-1.27;99.83
69776;DHT22;57049;51.450;-2.516;2023-02-10T07:20:04;-1.11;99.68
69776;DHT22;57049;51.450;-2.516;2023-02-10T07:22:30;-1.06;99.59
69776;DHT22;57049;51.450;-2.516;2023-02-10T07:24:56;-1.06;99.55
69776;DHT22;57049;51.450;-2.516;2023-02-10T07:27:22;-1.06;99.50
69776;DHT22;57049;51.450;-2.516;2023-02-10T07:29:48;-1.08;99.42
69776;DHT22;57049;51.450;-2.516;2023-02-10T07:32:14;-1.01;99.51
69776;DHT22;57049;51.450;-2.516;2023-02-10T07:34:40;-1.00;99.46
69776;DHT22;57049;51.450;-2.516;2023-02-10T07:37:06;-0.96;99.34
69776;DHT22;57049;51.450;-2.516;2023-02-10T07:39:32;-0.99;99.39
69776;DHT22;57049;51.450;-2.516;2023-02-10T07:41:57;-0.99;99.37
69776;DHT22;57049;51.450;-2.516;2023-02-10T07:44:23;-1.00;99.57
69776;DHT22;57049;51.450;-2.516;2023-02-10T07:46:50;-0.96;99.63
69776;DHT22;57049;51.450;-2.516;2023-02-10T07:49:16;-0.90;99.72
69776;DHT22;57049;51.450;-2.516;2023-02-10T07:51:41;-0.83;99.69
69776;DHT22;57049;51.450;-2.516;2023-02-10T07:54:07;-0.66;99.74
69776;DHT22;57049;51.450;-2.516;2023-02-10T07:56:33;-0.58;99.73
69776;DHT22;57049;51.450;-2.516;2023-02-10T07:58:58;-0.51;99.58
69776;DHT22;57049;51.450;-2.516;2023-02-10T08:01:24;-0.42;99.55
69776;DHT22;57049;51.450;-2.516;2023-02-10T08:03:50;-0.26;99.23
69776;DHT22;57049;51.450;-2.516;2023-02-10T08:06:22;-0.11;99.41
69776;DHT22;57049;51.450;-2.516;2023-02-10T08:08:48;-0.04;99.18
69776;DHT22;57049;51.450;-2.516;2023-02-10T08:11:14;0.14;99.14
69776;DHT22;57049;51.450;-2.516;2023-02-10T08:13:40;0.19;98.93
69776;DHT22;57049;51.450;-2.516;2023-02-10T08:16:06;0.29;98.78
69776;DHT22;57049;51.450;-2.516;2023-02-10T08:18:34;0.34;98.76
69776;DHT22;57049;51.450;-2.516;2023-02-10T08:21:00;0.40;98.88
69776;DHT22;57049;51.450;-2.516;2023-02-10T08:23:25;0.47;98.60
69776;DHT22;57049;51.450;-2.516;2023-02-10T08:25:51;0.51;98.74
69776;DHT22;57049;51.450;-2.516;2023-02-10T08:28:17;0.60;98.62
69776;DHT22;57049;51.450;-2.516;2023-02-10T08:30:43;0.68;98.48
69776;DHT22;57049;51.450;-2.516;2023-02-10T08:33:08;0.81;98.43
69776;DHT22;57049;51.450;-2.516;2023-02-10T08:35:37;0.91;98.46
69776;DHT22;57049;51.450;-2.516;2023-02-10T08:38:02;0.98;98.43
69776;DHT22;57049;51.450;-2.516;2023-02-10T08:40:28;1.03;98.48
69776;DHT22;57049;51.450;-2.516;2023-02-10T08:42:54;1.06;98.18
69776;DHT22;57049;51.450;-2.516;2023-02-10T08:45:20;1.13;98.16
69776;DHT22;57049;51.450;-2.516;2023-02-10T08:47:45;1.18;98.30
69776;DHT22;57049;51.450;-2.516;2023-02-10T08:50:11;1.33;98.18
69776;DHT22;57049;51.450;-2.516;2023-02-10T08:52:36;1.36;97.45
69776;DHT22;57049;51.450;-2.516;2023-02-10T08:55:02;1.43;97.56
69776;DHT22;57049;51.450;-2.516;2023-02-10T08:57:28;1.53;97.48
69776;DHT22;57049;51.450;-2.516;2023-02-10T08:59:53;1.59;97.53
69776;DHT22;57049;51.450;-2.516;2023-02-10T09:02:19;1.70;97.48
69776;DHT22;57049;51.450;-2.516;2023-02-10T09:04:44;1.75;97.43
69776;DHT22;57049;51.450;-2.516;2023-02-10T09:07:10;1.91;97.37
69776;DHT22;57049;51.450;-2.516;2023-02-10T09:09:39;1.95;97.23
69776;DHT22;57049;51.450;-2.516;2023-02-10T09:12:05;2.05;97.15
69776;DHT22;57049;51.450;-2.516;2023-02-10T09:14:31;2.17;97.02
69776;DHT22;57049;51.450;-2.516;2023-02-10T09:16:56;2.28;97.15
69776;DHT22;57049;51.450;-2.516;2023-02-10T09:19:22;2.48;96.85
69776;DHT22;57049;51.450;-2.516;2023-02-10T09:21:49;2.60;96.77
69776;DHT22;57049;51.450;-2.516;2023-02-10T09:24:16;2.72;96.48
69776;DHT22;57049;51.450;-2.516;2023-02-10T09:26:42;2.86;96.53
69776;DHT22;57049;51.450;-2.516;2023-02-10T09:29:07;2.97;95.64
69776;DHT22;57049;51.450;-2.516;2023-02-10T09:31:33;3.18;96.39
69776;DHT22;57049;51.450;-2.516;2023-02-10T09:33:59;3.28;96.42
69776;DHT22;57049;51.450;-2.516;2023-02-10T09:36:24;3.45;96.25
69776;DHT22;57049;51.450;-2.516;2023-02-10T09:38:50;3.51;95.12
69776;DHT22;57049;51.450;-2.516;2023-02-10T09:44:21;3.79;94.49
69776;DHT22;57049;51.450;-2.516;2023-02-10T09:54:54;4.19;92.87
69776;DHT22;57049;51.450;-2.516;2023-02-10T09:57:38;4.32;93.34
69776;DHT22;57049;51.450;-2.516;2023-02-10T10:00:17;4.40;92.74
69776;DHT22;57049;51.450;-2.516;2023-02-10T10:02:50;4.49;92.52
69776;DHT22;57049;51.450;-2.516;2023-02-10T10:07:55;4.77;92.03
69776;DHT22;57049;51.450;-2.516;2023-02-10T10:10:27;4.87;91.07
69776;DHT22;57049;51.450;-2.516;2023-02-10T10:12:55;4.98;91.19
69776;DHT22;57049;51.450;-2.516;2023-02-10T10:15:23;5.04;90.87
69776;DHT22;57049;51.450;-2.516;2023-02-10T10:20:51;5.32;90.23
69776;DHT22;57049;51.450;-2.516;2023-02-10T10:26:14;5.62;89.93
69776;DHT22;57049;51.450;-2.516;2023-02-10T10:31:37;6.04;88.68
69776;DHT22;57049;51.450;-2.516;2023-02-10T10:36:44;6.39;88.14
69776;DHT22;57049;51.450;-2.516;2023-02-10T10:39:20;6.45;87.94
69776;DHT22;57049;51.450;-2.516;2023-02-10T10:41:49;6.62;87.46
69776;DHT22;57049;51.450;-2.516;2023-02-10T10:44:18;6.75;87.64
69776;DHT22;57049;51.450;-2.516;2023-02-10T10:46:55;6.85;87.41
69776;DHT22;57049;51.450;-2.516;2023-02-10T10:49:21;7.07;87.25
69776;DHT22;57049;51.450;-2.516;2023-02-10T10:51:46;7.09;86.66
69776;DHT22;57049;51.450;-2.516;2023-02-10T10:54:16;7.13;86.08
69776;DHT22;57049;51.450;-2.516;2023-02-10T10:56:51;7.14;86.42
69776;DHT22;57049;51.450;-2.516;2023-02-10T11:01:52;7.40;86.15
69776;DHT22;57049;51.450;-2.516;2023-02-10T11:04:21;7.53;86.03
69776;DHT22;57049;51.450;-2.516;2023-02-10T11:06:50;7.73;86.11
69776;DHT22;57049;51.450;-2.516;2023-02-10T11:09:34;7.86;85.70
69776;DHT22;57049;51.450;-2.516;2023-02-10T11:12:37;7.95;85.15
69776;DHT22;57049;51.450;-2.516;2023-02-10T11:15:02;8.06;85.01
69776;DHT22;57049;51.450;-2.516;2023-02-10T11:17:36;8.09;84.58
69776;DHT22;57049;51.450;-2.516;2023-02-10T11:22:36;8.25;83.79
69776;DHT22;57049;51.450;-2.516;2023-02-10T11:25:54;8.33;83.75
69776;DHT22;57049;51.450;-2.516;2023-02-10T11:27:54;8.50;83.50
69776;DHT22;57049;51.450;-2.516;2023-02-10T11:30:38;8.50;83.07
69776;DHT22;57049;51.450;-2.516;2023-02-10T11:33:06;8.60;83.16
69776;DHT22;57049;51.450;-2.516;2023-02-10T11:35:32;8.61;82.75
69776;DHT22;57049;51.450;-2.516;2023-02-10T11:38:02;8.77;82.79
69776;DHT22;57049;51.450;-2.516;2023-02-10T11:41:02;8.81;82.81
69776;DHT22;57049;51.450;-2.516;2023-02-10T11:43:56;8.84;82.44
69776;DHT22;57049;51.450;-2.516;2023-02-10T11:46:27;8.91;82.42
69776;DHT22;57049;51.450;-2.516;2023-02-10T11:48:58;9.05;82.41
69776;DHT22;57049;51.450;-2.516;2023-02-10T11:51:24;9.28;82.27
69776;DHT22;57049;51.450;-2.516;2023-02-10T11:53:50;9.42;81.93
69776;DHT22;57049;51.450;-2.516;2023-02-10T11:56:33;9.46;81.11
69776;DHT22;57049;51.450;-2.516;2023-02-10T12:02:15;9.63;80.82
69776;DHT22;57049;51.450;-2.516;2023-02-10T12:10:25;9.50;81.21
69776;DHT22;57049;51.450;-2.516;2023-02-10T12:13:03;9.52;80.89
69776;DHT22;57049;51.450;-2.516;2023-02-10T12:18:15;9.72;80.66
69776;DHT22;57049;51.450;-2.516;2023-02-10T12:20:51;9.83;80.59
69776;DHT22;57049;51.450;-2.516;2023-02-10T12:45:47;9.59;81.95
69776;DHT22;57049;51.450;-2.516;2023-02-10T12:53:55;9.62;82.52
69776;DHT22;57049;51.450;-2.516;2023-02-10T12:56:26;9.65;82.57
69776;DHT22;57049;51.450;-2.516;2023-02-10T12:59:02;9.60;82.65
69776;DHT22;57049;51.450;-2.516;2023-02-10T13:01:33;9.55;82.82
69776;DHT22;57049;51.450;-2.516;2023-02-10T13:04:41;9.59;82.79
69776;DHT22;57049;51.450;-2.516;2023-02-10T13:12:50;9.63;83.07
69776;DHT22;57049;51.450;-2.516;2023-02-10T13:17:50;9.78;82.77
69776;DHT22;57049;51.450;-2.516;2023-02-10T13:20:49;9.85;83.13
69776;DHT22;57049;51.450;-2.516;2023-02-10T13:29:33;9.90;82.78
69776;DHT22;57049;51.450;-2.516;2023-02-10T13:37:27;10.24;82.33
69776;DHT22;57049;51.450;-2.516;2023-02-10T13:39:54;10.36;82.35
69776;DHT22;57049;51.450;-2.516;2023-02-10T13:42:34;10.40;81.99
69776;DHT22;57049;51.450;-2.516;2023-02-10T13:47:46;10.45;81.70
69776;DHT22;57049;51.450;-2.516;2023-02-10T13:52:53;10.61;81.97
69776;DHT22;57049;51.450;-2.516;2023-02-10T14:00:29;10.45;82.81
69776;DHT22;57049;51.450;-2.516;2023-02-10T14:03:18;10.52;82.46
69776;DHT22;57049;51.450;-2.516;2023-02-10T14:06:00;10.58;82.91
69776;DHT22;57049;51.450;-2.516;2023-02-10T14:08:41;10.55;83.05
69776;DHT22;57049;51.450;-2.516;2023-02-10T14:13:39;10.34;83.81
69776;DHT22;57049;51.450;-2.516;2023-02-10T14:18:58;10.09;84.37
69776;DHT22;57049;51.450;-2.516;2023-02-10T14:21:25;10.06;85.14
69776;DHT22;57049;51.450;-2.516;2023-02-10T14:23:53;10.10;85.40
69776;DHT22;57049;51.450;-2.516;2023-02-10T14:26:30;10.17;85.48
69776;DHT22;57049;51.450;-2.516;2023-02-10T14:28:58;10.16;85.68
69776;DHT22;57049;51.450;-2.516;2023-02-10T14:31:33;10.16;85.89
69776;DHT22;57049;51.450;-2.516;2023-02-10T14:34:04;10.09;86.06
69776;DHT22;57049;51.450;-2.516;2023-02-10T14:36:31;10.07;86.43
69776;DHT22;57049;51.450;-2.516;2023-02-10T14:38:58;10.07;86.35
69776;DHT22;57049;51.450;-2.516;2023-02-10T14:41:26;10.03;87.07
69776;DHT22;57049;51.450;-2.516;2023-02-10T14:43:52;9.96;87.39
69776;DHT22;57049;51.450;-2.516;2023-02-10T14:46:31;9.89;87.34
69776;DHT22;57049;51.450;-2.516;2023-02-10T14:49:00;9.89;87.42
69776;DHT22;57049;51.450;-2.516;2023-02-10T14:51:28;9.85;87.30
69776;DHT22;57049;51.450;-2.516;2023-02-10T14:53:54;9.82;87.45
69776;DHT22;57049;51.450;-2.516;2023-02-10T14:56:26;9.83;87.60
69776;DHT22;57049;51.450;-2.516;2023-02-10T14:58:52;9.85;87.41
69776;DHT22;57049;51.450;-2.516;2023-02-10T15:01:35;9.85;87.30
69776;DHT22;57049;51.450;-2.516;2023-02-10T15:04:01;9.78;87.60
69776;DHT22;57049;51.450;-2.516;2023-02-10T15:06:30;9.69;87.75
69776;DHT22;57049;51.450;-2.516;2023-02-10T15:09:07;9.66;88.10
69776;DHT22;57049;51.450;-2.516;2023-02-10T15:11:50;9.69;87.99
69776;DHT22;57049;51.450;-2.516;2023-02-10T15:15:03;9.65;88.15
69776;DHT22;57049;51.450;-2.516;2023-02-10T15:17:40;9.69;88.13
69776;DHT22;57049;51.450;-2.516;2023-02-10T15:28:19;9.58;88.35
69776;DHT22;57049;51.450;-2.516;2023-02-10T15:30:59;9.58;88.63
69776;DHT22;57049;51.450;-2.516;2023-02-10T15:33:40;9.58;88.65
69776;DHT22;57049;51.450;-2.516;2023-02-10T15:38:50;9.45;88.95
69776;DHT22;57049;51.450;-2.516;2023-02-10T15:41:57;9.38;89.03
69776;DHT22;57049;51.450;-2.516;2023-02-10T15:46:54;9.25;89.70
69776;DHT22;57049;51.450;-2.516;2023-02-10T15:49:21;9.35;89.51
69776;DHT22;57049;51.450;-2.516;2023-02-10T15:51:53;9.31;89.54
69776;DHT22;57049;51.450;-2.516;2023-02-10T15:54:24;9.34;89.35
69776;DHT22;57049;51.450;-2.516;2023-02-10T15:57:04;9.36;89.34
69776;DHT22;57049;51.450;-2.516;2023-02-10T15:59:32;9.25;89.74
69776;DHT22;57049;51.450;-2.516;2023-02-10T16:01:59;9.28;90.00
69776;DHT22;57049;51.450;-2.516;2023-02-10T16:04:25;9.25;90.09
69776;DHT22;57049;51.450;-2.516;2023-02-10T16:06:53;9.29;90.11
69776;DHT22;57049;51.450;-2.516;2023-02-10T16:09:18;9.18;90.36
69776;DHT22;57049;51.450;-2.516;2023-02-10T16:11:44;9.17;90.52
69776;DHT22;57049;51.450;-2.516;2023-02-10T16:14:10;9.19;90.66
69776;DHT22;57049;51.450;-2.516;2023-02-10T16:16:42;9.14;90.90
69776;DHT22;57049;51.450;-2.516;2023-02-10T16:19:12;9.17;90.98
69776;DHT22;57049;51.450;-2.516;2023-02-10T16:21:39;9.22;90.94
69776;DHT22;57049;51.450;-2.516;2023-02-10T16:24:05;9.18;91.07
69776;DHT22;57049;51.450;-2.516;2023-02-10T16:26:32;9.10;91.42
69776;DHT22;57049;51.450;-2.516;2023-02-10T16:28:58;9.11;91.38
69776;DHT22;57049;51.450;-2.516;2023-02-10T16:31:23;9.12;91.42
69776;DHT22;57049;51.450;-2.516;2023-02-10T16:33:49;9.08;91.66
69776;DHT22;57049;51.450;-2.516;2023-02-10T16:36:16;9.11;91.86
69776;DHT22;57049;51.450;-2.516;2023-02-10T16:38:43;9.07;91.90
69776;DHT22;57049;51.450;-2.516;2023-02-10T16:41:09;9.08;92.10
69776;DHT22;57049;51.450;-2.516;2023-02-10T16:43:34;9.00;92.32
69776;DHT22;57049;51.450;-2.516;2023-02-10T16:46:00;9.00;92.39
69776;DHT22;57049;51.450;-2.516;2023-02-10T16:48:26;9.04;92.59
69776;DHT22;57049;51.450;-2.516;2023-02-10T16:50:51;9.05;92.72
69776;DHT22;57049;51.450;-2.516;2023-02-10T16:53:17;9.05;92.86
69776;DHT22;57049;51.450;-2.516;2023-02-10T16:55:43;9.14;92.95
69776;DHT22;57049;51.450;-2.516;2023-02-10T16:58:14;9.14;93.04
69776;DHT22;57049;51.450;-2.516;2023-02-10T17:00:40;9.10;92.90
69776;DHT22;57049;51.450;-2.516;2023-02-10T17:03:06;9.10;93.38
69776;DHT22;57049;51.450;-2.516;2023-02-10T17:05:31;9.08;93.47
69776;DHT22;57049;51.450;-2.516;2023-02-10T17:07:58;9.10;93.56
69776;DHT22;57049;51.450;-2.516;2023-02-10T17:10:26;9.01;93.78
69776;DHT22;57049;51.450;-2.516;2023-02-10T17:12:52;9.03;94.11
69776;DHT22;57049;51.450;-2.516;2023-02-10T17:15:18;8.96;94.38
69776;DHT22;57049;51.450;-2.516;2023-02-10T17:17:44;8.88;94.68
69776;DHT22;57049;51.450;-2.516;2023-02-10T17:20:23;8.87;94.66
69776;DHT22;57049;51.450;-2.516;2023-02-10T17:22:49;8.94;94.88
69776;DHT22;57049;51.450;-2.516;2023-02-10T17:25:17;8.87;95.06
69776;DHT22;57049;51.450;-2.516;2023-02-10T17:27:42;8.83;95.25
69776;DHT22;57049;51.450;-2.516;2023-02-10T17:30:11;8.80;95.35
69776;DHT22;57049;51.450;-2.516;2023-02-10T17:32:37;8.76;95.55
69776;DHT22;57049;51.450;-2.516;2023-02-10T17:35:05;8.70;95.83
69776;DHT22;57049;51.450;-2.516;2023-02-10T17:37:31;8.70;95.79
69776;DHT22;57049;51.450;-2.516;2023-02-10T17:39:56;8.67;96.12
69776;DHT22;57049;51.450;-2.516;2023-02-10T17:42:31;8.63;96.34
69776;DHT22;57049;51.450;-2.516;2023-02-10T17:44:56;8.66;96.40